createdAt,value
2023-03-31T00:00:36.324Z,581.00
2023-03-31T00:01:36.397Z,585.00
2023-03-31T00:02:36.454Z,588.00
2023-03-31T00:03:36.527Z,587.00
2023-03-31T00:04:36.501Z,579.00
2023-03-31T00:05:36.386Z,582.00
2023-03-31T00:06:36.379Z,588.00
2023-03-31T00:07:36.375Z,575.00
2023-03-31T00:08:36.351Z,577.00
2023-03-31T00:09:36.326Z,585.00
2023-03-31T00:10:36.343Z,579.00
2023-03-31T00:11:36.380Z,583.00
2023-03-31T00:12:36.957Z,581.00
2023-03-31T00:13:36.398Z,578.00
2023-03-31T00:14:36.404Z,581.00
2023-03-31T00:15:36.402Z,579.00
2023-03-31T00:16:36.445Z,581.00
2023-03-31T00:17:36.437Z,575.00
2023-03-31T00:18:36.409Z,576.00
2023-03-31T00:19:36.406Z,574.00
2023-03-31T00:20:36.392Z,579.00
2023-03-31T00:21:36.466Z,574.00
2023-03-31T00:22:36.413Z,576.00
2023-03-31T00:23:36.396Z,581.00
2023-03-31T00:24:36.390Z,570.00
2023-03-31T00:25:36.385Z,574.00
2023-03-31T00:26:36.405Z,577.00
2023-03-31T00:27:36.395Z,580.00
2023-03-31T00:28:36.426Z,572.00
2023-03-31T00:29:36.410Z,574.00
2023-03-31T00:30:36.392Z,577.00
2023-03-31T00:31:36.404Z,576.00
2023-03-31T00:32:36.372Z,573.00
2023-03-31T00:33:36.326Z,574.00
2023-03-31T00:34:36.331Z,573.00
2023-03-31T00:35:36.400Z,569.00
2023-03-31T00:36:36.398Z,568.00
2023-03-31T00:37:36.361Z,574.00
2023-03-31T00:38:36.336Z,576.00
2023-03-31T00:39:36.351Z,573.00
2023-03-31T00:40:36.343Z,571.00
2023-03-31T00:41:36.346Z,565.00
2023-03-31T00:42:36.366Z,565.00
2023-03-31T00:43:36.397Z,568.00
2023-03-31T00:44:36.378Z,567.00
2023-03-31T00:45:36.425Z,561.00
2023-03-31T00:46:36.428Z,568.00
2023-03-31T00:47:36.525Z,560.00
2023-03-31T00:48:36.468Z,561.00
2023-03-31T00:49:36.448Z,568.00
2023-03-31T00:50:36.402Z,561.00
2023-03-31T00:51:36.373Z,562.00
2023-03-31T00:52:36.350Z,566.00
2023-03-31T00:53:36.317Z,562.00
2023-03-31T00:54:36.312Z,558.00
2023-03-31T00:55:36.298Z,564.00
2023-03-31T00:56:36.255Z,561.00
2023-03-31T00:57:36.239Z,554.00
2023-03-31T00:58:36.477Z,561.00
2023-03-31T00:59:36.262Z,563.00
2023-03-31T01:00:36.164Z,561.00
2023-03-31T01:01:36.191Z,559.00
2023-03-31T01:02:36.201Z,564.00
2023-03-31T01:03:36.118Z,557.00
2023-03-31T01:04:36.500Z,558.00
2023-03-31T01:05:36.029Z,560.00
2023-03-31T01:06:36.005Z,557.00
2023-03-31T01:07:36.050Z,557.00
2023-03-31T01:08:35.984Z,560.00
2023-03-31T01:09:35.955Z,552.00
2023-03-31T01:10:35.961Z,550.00
2023-03-31T01:11:35.955Z,555.00
2023-03-31T01:12:35.955Z,560.00
2023-03-31T01:13:35.956Z,552.00
2023-03-31T01:14:35.956Z,558.00
2023-03-31T01:15:35.922Z,554.00
2023-03-31T01:16:35.935Z,552.00
2023-03-31T01:17:36.612Z,554.00
2023-03-31T01:18:35.921Z,557.00
2023-03-31T01:19:35.871Z,557.00
2023-03-31T01:20:35.860Z,550.00
2023-03-31T01:21:35.822Z,549.00
2023-03-31T01:22:35.805Z,554.00
2023-03-31T01:23:35.810Z,550.00
2023-03-31T01:24:35.804Z,545.00
2023-03-31T01:25:35.759Z,543.00
2023-03-31T01:26:35.737Z,548.00
2023-03-31T01:27:35.699Z,550.00
2023-03-31T01:28:35.680Z,552.00
2023-03-31T01:29:35.644Z,546.00
2023-03-31T01:30:35.633Z,550.00
2023-03-31T01:31:35.702Z,552.00
2023-03-31T01:32:35.620Z,549.00
2023-03-31T01:33:35.547Z,548.00
2023-03-31T01:34:35.510Z,545.00
2023-03-31T01:35:35.515Z,544.00
2023-03-31T01:36:35.490Z,549.00
2023-03-31T01:37:35.487Z,545.00
2023-03-31T01:38:35.490Z,542.00
2023-03-31T01:39:35.468Z,549.00
2023-03-31T01:40:35.508Z,544.00
2023-03-31T01:41:35.412Z,542.00
2023-03-31T01:42:35.484Z,542.00
2023-03-31T01:43:35.392Z,542.00
2023-03-31T01:44:35.363Z,542.00
2023-03-31T01:45:35.358Z,544.00
2023-03-31T01:46:35.410Z,541.00
2023-03-31T01:47:35.366Z,541.00
2023-03-31T01:48:35.310Z,546.00
2023-03-31T01:49:35.318Z,546.00
2023-03-31T01:50:35.310Z,540.00
2023-03-31T01:51:35.293Z,540.00
2023-03-31T01:52:35.338Z,535.00
2023-03-31T01:53:35.232Z,544.00
2023-03-31T01:54:35.199Z,544.00
2023-03-31T01:55:35.180Z,536.00
2023-03-31T01:56:35.163Z,545.00
2023-03-31T01:57:35.131Z,538.00
2023-03-31T01:58:35.106Z,539.00
2023-03-31T01:59:35.078Z,535.00
2023-03-31T02:00:35.036Z,536.00
2023-03-31T02:01:37.267Z,541.00
2023-03-31T02:02:35.137Z,539.00
2023-03-31T02:03:35.020Z,536.00
2023-03-31T02:04:34.975Z,536.00
2023-03-31T02:05:34.944Z,539.00
2023-03-31T02:06:34.949Z,531.00
2023-03-31T02:07:34.942Z,536.00
2023-03-31T02:08:35.501Z,536.00
2023-03-31T02:09:34.906Z,535.00
2023-03-31T02:10:34.896Z,529.00
2023-03-31T02:11:34.870Z,532.00
2023-03-31T02:12:34.825Z,535.00
2023-03-31T02:13:34.806Z,533.00
2023-03-31T02:14:34.791Z,532.00
2023-03-31T02:15:34.758Z,533.00
2023-03-31T02:16:34.817Z,530.00
2023-03-31T02:17:34.747Z,532.00
2023-03-31T02:18:34.721Z,531.00
2023-03-31T02:19:34.707Z,530.00
2023-03-31T02:20:34.775Z,528.00
2023-03-31T02:21:34.672Z,525.00
2023-03-31T02:22:34.657Z,527.00
2023-03-31T02:23:34.640Z,522.00
2023-03-31T02:24:34.613Z,527.00
2023-03-31T02:25:34.592Z,527.00
2023-03-31T02:26:34.565Z,525.00
2023-03-31T02:27:34.541Z,522.00
2023-03-31T02:28:34.624Z,525.00
2023-03-31T02:29:34.537Z,522.00
2023-03-31T02:30:34.548Z,526.00
2023-03-31T02:31:34.603Z,520.00
2023-03-31T02:32:34.533Z,526.00
2023-03-31T02:33:34.512Z,528.00
2023-03-31T02:34:34.513Z,520.00
2023-03-31T02:35:34.541Z,522.00
2023-03-31T02:36:34.491Z,523.00
2023-03-31T02:37:34.478Z,525.00
2023-03-31T02:38:34.461Z,522.00
2023-03-31T02:39:34.454Z,520.00
2023-03-31T02:40:34.411Z,522.00
2023-03-31T02:41:34.399Z,522.00
2023-03-31T02:42:34.359Z,517.00
2023-03-31T02:43:34.336Z,512.00
2023-03-31T02:44:34.316Z,514.00
2023-03-31T02:45:34.322Z,519.00
2023-03-31T02:46:34.255Z,515.00
2023-03-31T02:47:34.291Z,516.00
2023-03-31T02:48:34.210Z,514.00
2023-03-31T02:49:34.195Z,514.00
2023-03-31T02:50:34.377Z,510.00
2023-03-31T02:51:34.529Z,511.00
2023-03-31T02:52:34.176Z,519.00
2023-03-31T02:53:34.163Z,509.00
2023-03-31T02:54:34.157Z,511.00
2023-03-31T02:55:34.139Z,513.00
2023-03-31T02:56:34.126Z,510.00
2023-03-31T02:57:34.108Z,513.00
2023-03-31T02:58:34.093Z,510.00
2023-03-31T02:59:34.065Z,513.00
2023-03-31T03:00:35.022Z,512.00
2023-03-31T03:01:34.047Z,512.00
2023-03-31T03:02:34.076Z,515.00
2023-03-31T03:03:34.067Z,513.00
2023-03-31T03:04:34.038Z,515.00
2023-03-31T03:05:34.047Z,508.00
2023-03-31T03:06:34.085Z,511.00
2023-03-31T03:07:34.094Z,508.00
2023-03-31T03:08:34.106Z,507.00
2023-03-31T03:09:34.129Z,509.00
2023-03-31T03:10:34.118Z,511.00
2023-03-31T03:11:34.129Z,510.00
2023-03-31T03:12:34.135Z,507.00
2023-03-31T03:13:34.146Z,507.00
2023-03-31T03:14:34.152Z,500.00
2023-03-31T03:15:34.172Z,503.00
2023-03-31T03:16:34.234Z,501.00
2023-03-31T03:17:34.186Z,504.00
2023-03-31T03:18:34.177Z,506.00
2023-03-31T03:19:34.187Z,500.00
2023-03-31T03:20:34.208Z,502.00
2023-03-31T03:21:34.547Z,506.00
2023-03-31T03:22:34.214Z,505.00
2023-03-31T03:23:34.226Z,502.00
2023-03-31T03:24:34.226Z,500.00
2023-03-31T03:25:34.266Z,504.00
2023-03-31T03:26:34.276Z,501.00
2023-03-31T03:27:34.303Z,503.00
2023-03-31T03:28:34.331Z,508.00
2023-03-31T03:29:34.310Z,506.00
2023-03-31T03:30:34.334Z,507.00
2023-03-31T03:31:34.333Z,504.00
2023-03-31T03:32:34.381Z,505.00
2023-03-31T03:33:34.357Z,505.00
2023-03-31T03:34:34.551Z,502.00
2023-03-31T03:35:34.398Z,502.00
2023-03-31T03:36:34.395Z,509.00
2023-03-31T03:37:34.399Z,505.00
2023-03-31T03:38:34.410Z,505.00
2023-03-31T03:39:34.428Z,503.00
2023-03-31T03:40:34.438Z,506.00
2023-03-31T03:41:34.449Z,502.00
2023-03-31T03:42:34.527Z,508.00
2023-03-31T03:43:34.475Z,500.00
2023-03-31T03:44:34.477Z,506.00
2023-03-31T03:45:34.494Z,506.00
2023-03-31T03:46:34.564Z,503.00
2023-03-31T03:47:34.532Z,508.00
2023-03-31T03:48:35.049Z,514.00
2023-03-31T03:49:34.546Z,508.00
2023-03-31T03:50:34.562Z,507.00
2023-03-31T03:51:34.589Z,513.00
2023-03-31T03:52:34.599Z,507.00
2023-03-31T03:53:34.605Z,508.00
2023-03-31T03:54:34.625Z,509.00
2023-03-31T03:55:34.635Z,514.00
2023-03-31T03:56:34.646Z,511.00
2023-03-31T03:57:34.667Z,508.00
2023-03-31T03:58:34.665Z,509.00
2023-03-31T03:59:34.689Z,507.00
2023-03-31T04:00:34.676Z,506.00
2023-03-31T04:01:34.706Z,506.00
2023-03-31T04:02:34.834Z,507.00
2023-03-31T04:03:34.723Z,506.00
2023-03-31T04:04:34.787Z,504.00
2023-03-31T04:05:34.759Z,505.00
2023-03-31T04:06:34.784Z,507.00
2023-03-31T04:07:34.794Z,504.00
2023-03-31T04:08:34.861Z,503.00
2023-03-31T04:09:34.800Z,503.00
2023-03-31T04:10:34.873Z,506.00
2023-03-31T04:11:34.834Z,506.00
2023-03-31T04:12:34.839Z,504.00
2023-03-31T04:13:34.848Z,503.00
2023-03-31T04:14:34.862Z,507.00
2023-03-31T04:15:34.878Z,506.00
2023-03-31T04:16:35.024Z,501.00
2023-03-31T04:17:35.034Z,503.00
2023-03-31T04:18:34.913Z,502.00
2023-03-31T04:19:34.932Z,508.00
2023-03-31T04:20:34.944Z,504.00
2023-03-31T04:21:35.127Z,503.00
2023-03-31T04:22:34.994Z,505.00
2023-03-31T04:23:34.990Z,506.00
2023-03-31T04:24:34.989Z,508.00
2023-03-31T04:25:34.997Z,511.00
2023-03-31T04:26:35.018Z,507.00
2023-03-31T04:27:35.040Z,509.00
2023-03-31T04:28:35.263Z,510.00
2023-03-31T04:29:35.051Z,506.00
2023-03-31T04:30:35.071Z,507.00
2023-03-31T04:31:36.416Z,512.00
2023-03-31T04:32:35.101Z,500.00
2023-03-31T04:33:35.111Z,511.00
2023-03-31T04:34:35.620Z,512.00
2023-03-31T04:35:35.142Z,509.00
2023-03-31T04:36:35.143Z,506.00
2023-03-31T04:37:35.167Z,507.00
2023-03-31T04:38:35.161Z,507.00
2023-03-31T04:39:35.169Z,503.00
2023-03-31T04:40:35.197Z,508.00
2023-03-31T04:41:35.201Z,509.00
2023-03-31T04:42:35.247Z,504.00
2023-03-31T04:43:36.055Z,509.00
2023-03-31T04:44:35.240Z,505.00
2023-03-31T04:45:35.268Z,506.00
2023-03-31T04:46:35.246Z,510.00
2023-03-31T04:47:35.298Z,508.00
2023-03-31T04:48:35.273Z,504.00
2023-03-31T04:49:35.298Z,508.00
2023-03-31T04:50:35.306Z,512.00
2023-03-31T04:51:35.321Z,511.00
2023-03-31T04:52:35.339Z,507.00
2023-03-31T04:53:35.343Z,509.00
2023-03-31T04:54:35.380Z,501.00
2023-03-31T04:55:35.385Z,501.00
2023-03-31T04:56:35.394Z,505.00
2023-03-31T04:57:35.405Z,505.00
2023-03-31T04:58:35.431Z,504.00
2023-03-31T04:59:35.456Z,508.00
2023-03-31T05:00:35.537Z,504.00
2023-03-31T05:01:35.553Z,504.00
2023-03-31T05:02:35.577Z,504.00
2023-03-31T05:03:35.693Z,507.00
2023-03-31T05:04:35.536Z,505.00
2023-03-31T05:05:35.561Z,507.00
2023-03-31T05:06:35.575Z,505.00
2023-03-31T05:07:35.607Z,506.00
2023-03-31T05:08:35.637Z,509.00
2023-03-31T05:09:35.629Z,506.00
2023-03-31T05:10:35.660Z,505.00
2023-03-31T05:11:35.675Z,507.00
2023-03-31T05:12:35.684Z,507.00
2023-03-31T05:13:35.694Z,502.00
2023-03-31T05:14:35.719Z,505.00
2023-03-31T05:15:35.735Z,508.00
2023-03-31T05:16:35.783Z,503.00
2023-03-31T05:17:35.815Z,504.00
2023-03-31T05:18:35.797Z,508.00
2023-03-31T05:19:35.803Z,512.00
2023-03-31T05:20:35.878Z,506.00
2023-03-31T05:21:35.846Z,507.00
2023-03-31T05:22:35.864Z,507.00
2023-03-31T05:23:35.875Z,502.00
2023-03-31T05:24:35.896Z,501.00
2023-03-31T05:25:35.908Z,511.00
2023-03-31T05:26:35.925Z,524.00
2023-03-31T05:27:35.988Z,527.00
2023-03-31T05:28:35.940Z,533.00
2023-03-31T05:29:35.943Z,542.00
2023-03-31T05:30:36.583Z,552.00
2023-03-31T05:31:35.992Z,576.00
2023-03-31T05:32:35.958Z,612.00
2023-03-31T05:33:35.921Z,629.00
2023-03-31T05:34:35.916Z,634.00
2023-03-31T05:35:35.918Z,674.00
2023-03-31T05:36:35.864Z,702.00
2023-03-31T05:37:35.844Z,739.00
2023-03-31T05:38:35.814Z,777.00
2023-03-31T05:39:35.768Z,836.00
2023-03-31T05:40:35.715Z,898.00
2023-03-31T05:41:35.682Z,931.00
2023-03-31T05:42:35.650Z,982.00
2023-03-31T05:43:35.601Z,1050.00
2023-03-31T05:44:35.547Z,1115.00
2023-03-31T05:45:35.505Z,1159.00
2023-03-31T05:46:35.527Z,1219.00
2023-03-31T05:47:35.457Z,1313.00
2023-03-31T05:48:35.391Z,1364.00
2023-03-31T05:49:35.378Z,1382.00
2023-03-31T05:50:35.342Z,1440.00
2023-03-31T05:51:35.321Z,1481.00
2023-03-31T05:52:35.318Z,1535.00
2023-03-31T05:53:35.320Z,1580.00
2023-03-31T05:54:35.314Z,1632.00
2023-03-31T05:55:35.330Z,1677.00
2023-03-31T05:56:35.343Z,1708.00
2023-03-31T05:57:35.366Z,1745.00
2023-03-31T05:58:35.387Z,1793.00
2023-03-31T05:59:35.399Z,1846.00
2023-03-31T06:00:35.407Z,1874.00
2023-03-31T06:01:35.468Z,1917.00
2023-03-31T06:02:35.512Z,1952.00
2023-03-31T06:03:35.546Z,2000.00
2023-03-31T06:04:35.526Z,2056.00
2023-03-31T06:05:35.445Z,2064.00
2023-03-31T06:06:37.598Z,2118.00
2023-03-31T06:07:35.574Z,2139.00
2023-03-31T06:08:35.459Z,2167.00
2023-03-31T06:09:35.494Z,2213.00
2023-03-31T06:10:35.447Z,2243.00
2023-03-31T06:11:35.474Z,2279.00
2023-03-31T06:12:35.449Z,2324.00
2023-03-31T06:13:35.443Z,2365.00
2023-03-31T06:14:35.438Z,2394.00
2023-03-31T06:15:35.436Z,2431.00
2023-03-31T06:16:35.420Z,2418.00
2023-03-31T06:17:36.843Z,2464.00
2023-03-31T06:18:35.344Z,2454.00
2023-03-31T06:19:35.274Z,2556.00
2023-03-31T06:20:35.220Z,2601.00
2023-03-31T06:21:35.150Z,2623.00
2023-03-31T06:22:35.620Z,2642.00
2023-03-31T06:23:36.042Z,2644.00
2023-03-31T06:24:35.025Z,2597.00
2023-03-31T06:25:47.880Z,2346.00
2023-03-31T06:26:36.063Z,2123.00
2023-03-31T06:27:34.918Z,1937.00
2023-03-31T06:28:34.878Z,1817.00
2023-03-31T06:29:34.893Z,1697.00
2023-03-31T06:30:34.773Z,1706.00
2023-03-31T06:31:34.765Z,1557.00
2023-03-31T06:32:34.749Z,1386.00
2023-03-31T06:33:35.116Z,1276.00
2023-03-31T06:34:34.598Z,1154.00
2023-03-31T06:35:34.553Z,1114.00
2023-03-31T06:36:34.560Z,989.00
2023-03-31T06:37:34.545Z,756.00
2023-03-31T06:38:34.449Z,627.00
2023-03-31T06:39:34.408Z,564.00
2023-03-31T06:40:34.360Z,523.00
2023-03-31T06:41:34.330Z,501.00
2023-03-31T06:42:34.333Z,505.00
2023-03-31T06:43:34.349Z,514.00
2023-03-31T06:44:34.386Z,532.00
2023-03-31T06:45:34.310Z,539.00
2023-03-31T06:46:34.333Z,561.00
2023-03-31T06:47:34.288Z,576.00
2023-03-31T06:48:34.280Z,568.00
2023-03-31T06:49:34.229Z,576.00
2023-03-31T06:50:34.189Z,586.00
2023-03-31T06:51:34.177Z,600.00
2023-03-31T06:52:34.190Z,597.00
2023-03-31T06:53:34.108Z,574.00
2023-03-31T06:54:34.082Z,545.00
2023-03-31T06:55:34.084Z,523.00
2023-03-31T06:56:34.327Z,527.00
2023-03-31T06:57:34.123Z,548.00
2023-03-31T06:58:34.095Z,561.00
2023-03-31T06:59:34.064Z,570.00
2023-03-31T07:00:34.068Z,565.00
2023-03-31T07:01:34.067Z,569.00
2023-03-31T07:02:34.178Z,596.00
2023-03-31T07:03:34.069Z,602.00
2023-03-31T07:04:34.026Z,590.00
2023-03-31T07:05:35.045Z,596.00
2023-03-31T07:06:34.011Z,595.00
2023-03-31T07:07:34.133Z,593.00
2023-03-31T07:08:34.059Z,600.00
2023-03-31T07:09:34.078Z,589.00
2023-03-31T07:10:34.166Z,566.00
2023-03-31T07:11:34.097Z,583.00
2023-03-31T07:12:34.110Z,583.00
2023-03-31T07:13:34.096Z,583.00
2023-03-31T07:14:34.108Z,577.00
2023-03-31T07:15:34.118Z,577.00
2023-03-31T07:16:34.136Z,577.00
2023-03-31T07:17:34.147Z,569.00
2023-03-31T07:18:35.016Z,568.00
2023-03-31T07:19:34.090Z,563.00
2023-03-31T07:20:34.110Z,577.00
2023-03-31T07:21:34.236Z,575.00
2023-03-31T07:22:34.140Z,580.00
2023-03-31T07:23:34.172Z,569.00
2023-03-31T07:24:34.193Z,660.00
2023-03-31T07:25:34.248Z,602.00
2023-03-31T07:26:34.181Z,598.00
2023-03-31T07:27:34.171Z,620.00
2023-03-31T07:28:34.158Z,613.00
2023-03-31T07:29:34.159Z,607.00
2023-03-31T07:30:34.138Z,601.00
2023-03-31T07:31:34.160Z,573.00
2023-03-31T07:32:34.145Z,568.00
2023-03-31T07:33:34.139Z,547.00
2023-03-31T07:34:37.398Z,514.00
2023-03-31T07:35:34.078Z,501.00
2023-03-31T07:36:34.022Z,505.00
2023-03-31T07:37:33.955Z,498.00
2023-03-31T07:38:34.151Z,502.00
2023-03-31T07:39:33.865Z,502.00
2023-03-31T07:40:33.827Z,493.00
2023-03-31T07:41:33.774Z,491.00
2023-03-31T07:42:33.732Z,503.00
2023-03-31T07:43:33.697Z,493.00
2023-03-31T07:44:33.714Z,500.00
2023-03-31T07:45:33.588Z,509.00
2023-03-31T07:46:33.630Z,504.00
2023-03-31T07:47:33.568Z,505.00
2023-03-31T07:48:33.649Z,507.00
2023-03-31T07:49:33.430Z,510.00
2023-03-31T07:50:33.404Z,504.00
2023-03-31T07:51:34.164Z,502.00
2023-03-31T07:52:33.305Z,506.00
2023-03-31T07:53:33.269Z,503.00
2023-03-31T07:54:33.245Z,508.00
2023-03-31T07:55:33.231Z,500.00
2023-03-31T07:56:33.193Z,510.00
2023-03-31T07:57:33.202Z,504.00
2023-03-31T07:58:33.141Z,500.00
2023-03-31T07:59:33.140Z,510.00
2023-03-31T08:00:33.176Z,509.00
2023-03-31T08:01:33.186Z,510.00
2023-03-31T08:02:33.229Z,512.00
2023-03-31T08:03:33.165Z,516.00
2023-03-31T08:04:33.189Z,518.00
2023-03-31T08:05:33.117Z,522.00
2023-03-31T08:06:33.123Z,519.00
2023-03-31T08:07:33.152Z,521.00
2023-03-31T08:08:33.161Z,508.00
2023-03-31T08:09:33.165Z,523.00
2023-03-31T08:10:33.192Z,549.00
2023-03-31T08:11:33.199Z,555.00
2023-03-31T08:12:33.190Z,556.00
2023-03-31T08:13:33.144Z,558.00
2023-03-31T08:14:40.705Z,536.00
2023-03-31T08:15:34.086Z,530.00
2023-03-31T08:16:33.043Z,504.00
2023-03-31T08:17:33.015Z,485.00
2023-03-31T08:18:32.907Z,468.00
2023-03-31T08:19:32.860Z,444.00
2023-03-31T08:20:32.832Z,476.00
2023-03-31T08:21:32.825Z,500.00
2023-03-31T08:22:32.739Z,503.00
2023-03-31T08:23:32.696Z,499.00
2023-03-31T08:24:33.576Z,500.00
2023-03-31T08:25:32.606Z,500.00
2023-03-31T08:26:32.575Z,511.00
2023-03-31T08:27:32.533Z,539.00
2023-03-31T08:28:32.479Z,501.00
2023-03-31T08:29:32.457Z,487.00
2023-03-31T08:30:32.445Z,482.00
2023-03-31T08:31:33.104Z,508.00
2023-03-31T08:32:32.536Z,511.00
2023-03-31T08:33:32.544Z,562.00
2023-03-31T08:34:32.570Z,644.00
2023-03-31T08:35:32.670Z,625.00
2023-03-31T08:36:32.637Z,630.00
2023-03-31T08:37:33.595Z,714.00
2023-03-31T08:38:32.653Z,856.00
2023-03-31T08:39:32.647Z,963.00
2023-03-31T08:40:32.631Z,1086.00
2023-03-31T08:41:32.654Z,1163.00
2023-03-31T08:42:32.563Z,1230.00
2023-03-31T08:43:32.510Z,1323.00
2023-03-31T08:44:32.502Z,1462.00
2023-03-31T08:45:32.493Z,1571.00
2023-03-31T08:46:32.720Z,1658.00
2023-03-31T08:47:32.513Z,1705.00
2023-03-31T08:48:32.477Z,1765.00
2023-03-31T08:49:33.083Z,1777.00
2023-03-31T08:50:32.477Z,1839.00
2023-03-31T08:51:32.505Z,1989.00
2023-03-31T08:52:32.479Z,1987.00
2023-03-31T08:53:32.476Z,2048.00
2023-03-31T08:54:32.555Z,2218.00
2023-03-31T08:55:32.510Z,2258.00
2023-03-31T08:56:33.382Z,2259.00
2023-03-31T08:57:32.401Z,2268.00
2023-03-31T08:58:32.318Z,2303.00
2023-03-31T08:59:32.188Z,2356.00
2023-03-31T09:00:33.122Z,2265.00
2023-03-31T09:01:35.889Z,2294.00
2023-03-31T09:02:33.130Z,2268.00
2023-03-31T09:03:32.020Z,2307.00
2023-03-31T09:04:31.866Z,2377.00
2023-03-31T09:05:31.777Z,2509.00
2023-03-31T09:06:32.179Z,2711.00
2023-03-31T09:07:31.630Z,2775.00
2023-03-31T09:08:31.565Z,2907.00
2023-03-31T09:09:31.495Z,3025.00
2023-03-31T09:10:31.441Z,3092.00
2023-03-31T09:11:31.435Z,3187.00
2023-03-31T09:12:32.178Z,3227.00
2023-03-31T09:13:31.203Z,3240.00
2023-03-31T09:14:32.098Z,3217.00
2023-03-31T09:15:31.071Z,3217.00
2023-03-31T09:16:31.038Z,3199.00
2023-03-31T09:17:30.973Z,3183.00
2023-03-31T09:18:30.855Z,3229.00
2023-03-31T09:19:31.601Z,3256.00
2023-03-31T09:20:30.756Z,3272.00
2023-03-31T09:21:31.611Z,3293.00
2023-03-31T09:22:30.650Z,2994.00
2023-03-31T09:23:30.604Z,2615.00
2023-03-31T09:24:32.505Z,2305.00
2023-03-31T09:25:31.187Z,2083.00
2023-03-31T09:26:30.584Z,2101.00
2023-03-31T09:27:30.610Z,2147.00
2023-03-31T09:28:30.686Z,2245.00
2023-03-31T09:29:30.507Z,2375.00
2023-03-31T09:30:30.493Z,2477.00
2023-03-31T09:31:31.197Z,2568.00
2023-03-31T09:32:30.496Z,2610.00
2023-03-31T09:33:30.428Z,2654.00
2023-03-31T09:34:30.431Z,2684.00
2023-03-31T09:35:30.402Z,2725.00
2023-03-31T09:36:30.382Z,2774.00
2023-03-31T09:37:30.315Z,2880.00
2023-03-31T09:38:30.243Z,2946.00
2023-03-31T09:39:31.189Z,2962.00
2023-03-31T09:40:30.169Z,3064.00
2023-03-31T09:41:31.846Z,3018.00
2023-03-31T09:42:30.076Z,3059.00
2023-03-31T09:43:29.987Z,3052.00
2023-03-31T09:44:29.903Z,3020.00
2023-03-31T09:45:30.200Z,2983.00
2023-03-31T09:46:29.815Z,2954.00
2023-03-31T09:47:29.722Z,2928.00
2023-03-31T09:48:29.666Z,2953.00
2023-03-31T09:49:29.545Z,2950.00
2023-03-31T09:50:29.478Z,2922.00
2023-03-31T09:51:29.419Z,2956.00
2023-03-31T09:52:29.328Z,2984.00
2023-03-31T09:53:29.274Z,2984.00
2023-03-31T09:54:29.257Z,3019.00
2023-03-31T09:55:39.620Z,3021.00
2023-03-31T09:56:30.059Z,3022.00
2023-03-31T09:57:31.250Z,3026.00
2023-03-31T09:58:28.928Z,3023.00
2023-03-31T09:59:28.840Z,3030.00
2023-03-31T10:00:28.775Z,3046.00
2023-03-31T10:01:28.730Z,3071.00
2023-03-31T10:02:29.257Z,3080.00
2023-03-31T10:03:28.551Z,3091.00
2023-03-31T10:04:28.504Z,3128.00
2023-03-31T10:05:28.420Z,3124.00
2023-03-31T10:06:29.127Z,3098.00
2023-03-31T10:07:28.272Z,3095.00
2023-03-31T10:08:28.218Z,3092.00
2023-03-31T10:09:28.161Z,3083.00
2023-03-31T10:10:28.084Z,3077.00
2023-03-31T10:11:28.012Z,3065.00
2023-03-31T10:12:27.945Z,3067.00
2023-03-31T10:13:27.899Z,3052.00
2023-03-31T10:14:27.827Z,3054.00
2023-03-31T10:15:27.843Z,3044.00
2023-03-31T10:16:27.747Z,3041.00
2023-03-31T10:17:27.682Z,3049.00
2023-03-31T10:18:27.620Z,3036.00
2023-03-31T10:19:27.550Z,3033.00
2023-03-31T10:20:27.470Z,3018.00
2023-03-31T10:21:27.391Z,3012.00
2023-03-31T10:22:27.342Z,3007.00
2023-03-31T10:23:28.269Z,3008.00
2023-03-31T10:24:27.197Z,3010.00
2023-03-31T10:25:27.142Z,3005.00
2023-03-31T10:26:27.073Z,3013.00
2023-03-31T10:27:27.021Z,2998.00
2023-03-31T10:28:26.951Z,2977.00
2023-03-31T10:29:26.896Z,2966.00
2023-03-31T10:30:28.210Z,2974.00
2023-03-31T10:31:26.937Z,2952.00
2023-03-31T10:32:26.761Z,2949.00
2023-03-31T10:33:26.721Z,2929.00
2023-03-31T10:34:27.206Z,2932.00
2023-03-31T10:35:27.636Z,2922.00
2023-03-31T10:36:26.681Z,2921.00
2023-03-31T10:37:26.676Z,2917.00
2023-03-31T10:38:27.223Z,2906.00
2023-03-31T10:39:26.669Z,2896.00
2023-03-31T10:40:26.691Z,2894.00
2023-03-31T10:41:26.804Z,2872.00
2023-03-31T10:42:26.684Z,2887.00
2023-03-31T10:43:26.696Z,2872.00
2023-03-31T10:44:26.697Z,2866.00
2023-03-31T10:45:36.971Z,2857.00
2023-03-31T10:46:27.703Z,2858.00
2023-03-31T10:47:26.624Z,2859.00
2023-03-31T10:48:26.522Z,2856.00
2023-03-31T10:49:26.431Z,2853.00
2023-03-31T10:50:26.381Z,2840.00
2023-03-31T10:51:26.341Z,2819.00
2023-03-31T10:52:27.270Z,2819.00
2023-03-31T10:53:26.149Z,2826.00
2023-03-31T10:54:26.092Z,2807.00
2023-03-31T10:55:26.025Z,2794.00
2023-03-31T10:56:25.966Z,2792.00
2023-03-31T10:57:26.017Z,2782.00
2023-03-31T10:58:25.909Z,2777.00
2023-03-31T10:59:26.232Z,2774.00
2023-03-31T11:00:25.856Z,2762.00
2023-03-31T11:01:25.902Z,2761.00
2023-03-31T11:02:25.890Z,2753.00
2023-03-31T11:03:25.982Z,2737.00
2023-03-31T11:04:25.877Z,2739.00
2023-03-31T11:05:25.966Z,2726.00
2023-03-31T11:06:25.936Z,2722.00
2023-03-31T11:07:25.929Z,2719.00
2023-03-31T11:08:26.721Z,2706.00
2023-03-31T11:09:25.962Z,2706.00
2023-03-31T11:10:25.972Z,2691.00
2023-03-31T11:11:25.966Z,2679.00
2023-03-31T11:12:25.990Z,2684.00
2023-03-31T11:13:26.009Z,2681.00
2023-03-31T11:14:26.070Z,2663.00
2023-03-31T11:15:26.068Z,2661.00
2023-03-31T11:16:26.245Z,2651.00
2023-03-31T11:17:26.180Z,2639.00
2023-03-31T11:18:26.066Z,2648.00
2023-03-31T11:19:26.040Z,2638.00
2023-03-31T11:20:26.058Z,2640.00
2023-03-31T11:21:26.054Z,2624.00
2023-03-31T11:22:26.734Z,2626.00
2023-03-31T11:23:26.038Z,2631.00
2023-03-31T11:24:26.025Z,2618.00
2023-03-31T11:25:26.107Z,2615.00
2023-03-31T11:26:25.999Z,2609.00
2023-03-31T11:27:25.959Z,2586.00
2023-03-31T11:28:25.952Z,2595.00
2023-03-31T11:29:25.950Z,2583.00
2023-03-31T11:30:25.909Z,2588.00
2023-03-31T11:31:26.002Z,2575.00
2023-03-31T11:32:25.930Z,2560.00
2023-03-31T11:33:25.870Z,2549.00
2023-03-31T11:34:25.862Z,2545.00
2023-03-31T11:35:25.839Z,2541.00
2023-03-31T11:36:25.822Z,2543.00
2023-03-31T11:37:25.805Z,2522.00
2023-03-31T11:38:25.741Z,2516.00
2023-03-31T11:39:25.687Z,2524.00
2023-03-31T11:40:25.650Z,2508.00
2023-03-31T11:41:25.635Z,2512.00
2023-03-31T11:42:25.616Z,2498.00
2023-03-31T11:43:25.598Z,2490.00
2023-03-31T11:44:25.565Z,2501.00
2023-03-31T11:45:25.530Z,2485.00
2023-03-31T11:46:25.551Z,2486.00
2023-03-31T11:47:25.477Z,2476.00
2023-03-31T11:48:25.404Z,2465.00
2023-03-31T11:49:25.363Z,2464.00
2023-03-31T11:50:25.326Z,2465.00
2023-03-31T11:51:25.286Z,2447.00
2023-03-31T11:52:25.226Z,2460.00
2023-03-31T11:53:25.177Z,2451.00
2023-03-31T11:54:25.126Z,2443.00
2023-03-31T11:55:25.082Z,2446.00
2023-03-31T11:56:25.040Z,2443.00
2023-03-31T11:57:25.138Z,2429.00
2023-03-31T11:58:24.955Z,2423.00
2023-03-31T11:59:24.903Z,2416.00
2023-03-31T12:00:24.870Z,2411.00
2023-03-31T12:01:24.818Z,2412.00
2023-03-31T12:02:24.801Z,2399.00
2023-03-31T12:03:24.895Z,2405.00
2023-03-31T12:04:25.246Z,2397.00
2023-03-31T12:05:24.767Z,2380.00
2023-03-31T12:06:24.775Z,2384.00
2023-03-31T12:07:24.596Z,2376.00
2023-03-31T12:08:24.533Z,2370.00
2023-03-31T12:09:24.512Z,2376.00
2023-03-31T12:10:24.470Z,2361.00
2023-03-31T12:11:24.413Z,2360.00
2023-03-31T12:12:24.378Z,2357.00
2023-03-31T12:13:24.353Z,2340.00
2023-03-31T12:14:24.301Z,2330.00
2023-03-31T12:15:24.278Z,2335.00
2023-03-31T12:16:24.327Z,2319.00
2023-03-31T12:17:24.231Z,2329.00
2023-03-31T12:18:24.261Z,2329.00
2023-03-31T12:19:24.141Z,2320.00